createdAt,value
2022-11-21T00:00:38.846Z,5.20
2022-11-21T00:03:43.641Z,4.63
2022-11-21T00:06:48.386Z,4.93
2022-11-21T00:09:53.298Z,4.00
2022-11-21T00:12:59.572Z,4.50
2022-11-21T00:16:09.169Z,4.50
2022-11-21T00:19:13.844Z,4.70
2022-11-21T00:22:18.978Z,4.87
2022-11-21T00:25:23.912Z,6.33
2022-11-21T00:28:30.472Z,6.70
2022-11-21T00:31:35.194Z,6.77
2022-11-21T00:34:40.296Z,7.27
2022-11-21T00:37:44.985Z,7.47
2022-11-21T00:40:49.706Z,7.90
2022-11-21T00:43:55.949Z,8.43
2022-11-21T00:47:00.980Z,9.13
2022-11-21T00:50:06.968Z,8.70
2022-11-21T00:53:11.901Z,9.07
2022-11-21T00:56:16.905Z,8.03
2022-11-21T00:59:23.296Z,7.73
2022-11-21T01:02:27.926Z,7.20
2022-11-21T01:05:34.056Z,6.90
2022-11-21T01:08:40.965Z,6.40
2022-11-21T01:11:45.717Z,6.73
2022-11-21T01:14:51.723Z,7.17
2022-11-21T01:17:56.388Z,6.60
2022-11-21T01:21:01.847Z,6.83
2022-11-21T01:24:07.396Z,6.80
2022-11-21T01:27:12.736Z,6.20
2022-11-21T01:30:18.971Z,7.00
2022-11-21T01:33:23.623Z,6.67
2022-11-21T01:36:30.565Z,6.70
2022-11-21T01:39:35.509Z,6.17
2022-11-21T01:42:54.299Z,6.77
2022-11-21T01:46:02.797Z,6.50
2022-11-21T01:49:11.002Z,7.20
2022-11-21T01:52:20.662Z,7.33
2022-11-21T01:55:25.374Z,6.87
2022-11-21T01:58:31.001Z,7.27
2022-11-21T02:01:38.101Z,7.50
2022-11-21T02:04:44.370Z,7.57
2022-11-21T02:07:50.553Z,7.03
2022-11-21T02:11:05.602Z,7.83
2022-11-21T02:14:13.077Z,7.27
2022-11-21T02:17:21.129Z,7.30
2022-11-21T02:20:27.850Z,7.80
2022-11-21T02:23:39.581Z,7.60
2022-11-21T02:26:47.449Z,7.87
2022-11-21T02:29:52.161Z,7.93
2022-11-21T02:32:57.309Z,7.93
2022-11-21T02:36:03.601Z,8.20
2022-11-21T02:39:10.709Z,7.63
2022-11-21T02:42:23.157Z,7.43
2022-11-21T02:45:33.121Z,8.03
2022-11-21T02:48:38.881Z,7.40
2022-11-21T02:51:43.807Z,8.00
2022-11-21T02:54:48.478Z,8.00
2022-11-21T02:57:55.809Z,7.50
2022-11-21T03:01:01.819Z,7.63
2022-11-21T03:04:07.117Z,8.60
2022-11-21T03:07:12.658Z,8.37
2022-11-21T03:10:18.465Z,8.00
2022-11-21T03:13:24.628Z,7.63
2022-11-21T03:16:29.513Z,7.73
2022-11-21T03:19:34.120Z,7.57
2022-11-21T03:22:38.910Z,7.47
2022-11-21T03:25:43.518Z,7.83
2022-11-21T03:28:49.693Z,7.43
2022-11-21T03:31:54.286Z,7.57
2022-11-21T03:34:58.937Z,7.23
2022-11-21T03:38:03.501Z,7.90
2022-11-21T03:41:28.550Z,8.10
2022-11-21T03:44:34.842Z,8.20
2022-11-21T03:47:39.501Z,7.93
2022-11-21T03:50:44.864Z,7.60
2022-11-21T03:53:50.224Z,7.13
2022-11-21T03:56:54.798Z,7.70
2022-11-21T04:00:00.825Z,7.30
2022-11-21T04:03:05.581Z,7.00
2022-11-21T04:06:11.792Z,7.23
2022-11-21T04:09:16.435Z,6.50
2022-11-21T04:12:21.059Z,7.03
2022-11-21T04:15:27.030Z,6.47
2022-11-21T04:18:31.861Z,5.77
2022-11-21T04:21:36.433Z,5.57
2022-11-21T04:24:41.049Z,5.53
2022-11-21T04:27:45.613Z,5.43
2022-11-21T04:30:54.864Z,5.97
2022-11-21T04:34:00.550Z,6.80
2022-11-21T04:37:08.893Z,6.37
2022-11-21T04:40:17.009Z,6.60
2022-11-21T04:43:22.041Z,6.03
2022-11-21T04:46:28.256Z,5.53
2022-11-21T04:49:32.869Z,5.97
2022-11-21T04:52:37.785Z,6.27
2022-11-21T04:55:42.949Z,5.80
2022-11-21T04:58:47.590Z,5.73
2022-11-21T05:01:53.566Z,6.00
2022-11-21T05:04:58.285Z,5.90
2022-11-21T05:08:03.294Z,5.80
2022-11-21T05:11:25.153Z,5.77
2022-11-21T05:14:29.980Z,5.70
2022-11-21T05:17:36.153Z,5.27
2022-11-21T05:20:40.880Z,5.43
2022-11-21T05:23:45.496Z,6.30
2022-11-21T05:26:50.256Z,5.80
2022-11-21T05:29:55.445Z,6.33
2022-11-21T05:33:01.570Z,6.20
2022-11-21T05:36:06.729Z,6.87
2022-11-21T05:39:11.365Z,6.83
2022-11-21T05:42:15.987Z,7.17
2022-11-21T05:45:20.021Z,7.60
2022-11-21T05:48:26.353Z,7.30
2022-11-21T05:51:31.045Z,7.67
2022-11-21T05:54:35.804Z,7.70
2022-11-21T05:57:40.701Z,8.00
2022-11-21T06:00:45.326Z,7.20
2022-11-21T06:03:50.373Z,7.63
2022-11-21T06:06:54.977Z,7.57
2022-11-21T06:09:59.959Z,7.20
2022-11-21T06:13:21.966Z,6.67
2022-11-21T06:16:26.764Z,6.30
2022-11-21T06:19:32.786Z,6.40
2022-11-21T06:22:37.705Z,6.63
2022-11-21T06:25:43.021Z,6.60
2022-11-21T06:28:48.247Z,6.67
2022-11-21T06:31:53.169Z,5.83
2022-11-21T06:34:59.626Z,6.23
2022-11-21T06:38:04.268Z,6.60
2022-11-21T06:41:12.010Z,6.30
2022-11-21T06:44:16.628Z,5.10
2022-11-21T06:47:21.592Z,4.47
2022-11-21T06:50:28.272Z,4.47
2022-11-21T06:53:32.978Z,4.07
2022-11-21T06:56:37.813Z,4.70
2022-11-21T06:59:43.103Z,4.40
2022-11-21T07:02:47.800Z,3.87
2022-11-21T07:05:58.501Z,4.20
2022-11-21T07:09:31.787Z,3.77
2022-11-21T07:12:45.157Z,3.43
2022-11-21T07:15:52.032Z,3.70
2022-11-21T07:18:56.633Z,3.50
2022-11-21T07:22:02.588Z,3.80
2022-11-21T07:25:08.267Z,3.77
2022-11-21T07:28:14.457Z,3.70
2022-11-21T07:31:19.130Z,3.17
2022-11-21T07:34:23.761Z,3.70
2022-11-21T07:37:30.079Z,3.47
2022-11-21T07:40:34.910Z,3.40
2022-11-21T07:43:39.530Z,3.67
2022-11-21T07:46:44.206Z,3.50
2022-11-21T07:49:49.213Z,3.97
2022-11-21T07:52:59.560Z,3.90
2022-11-21T07:56:04.909Z,3.60
2022-11-21T07:59:09.757Z,3.50
2022-11-21T08:02:20.464Z,3.50
2022-11-21T08:05:25.481Z,2.93
2022-11-21T08:08:32.336Z,2.83
2022-11-21T08:11:38.152Z,2.70
2022-11-21T08:14:43.141Z,2.70
2022-11-21T08:17:48.054Z,2.33
2022-11-21T08:20:52.706Z,2.30
2022-11-21T08:23:58.656Z,3.00
2022-11-21T08:27:03.567Z,2.47
2022-11-21T08:30:10.623Z,2.90
2022-11-21T08:33:15.276Z,2.80
2022-11-21T08:36:19.916Z,3.03
2022-11-21T08:39:26.542Z,2.63
2022-11-21T08:42:31.504Z,2.40
2022-11-21T08:45:37.591Z,2.60
2022-11-21T08:48:42.206Z,2.50
2022-11-21T08:51:49.370Z,2.10
2022-11-21T08:54:55.513Z,2.10
2022-11-21T08:58:00.284Z,1.90
2022-11-21T09:01:05.087Z,1.63
2022-11-21T09:04:10.246Z,1.70
2022-11-21T09:07:14.859Z,1.77
2022-11-21T09:10:20.920Z,1.90
2022-11-21T09:13:25.620Z,2.10
2022-11-21T09:16:48.084Z,2.50
2022-11-21T09:19:52.651Z,2.50
2022-11-21T09:22:57.300Z,2.77
2022-11-21T09:26:03.283Z,3.00
2022-11-21T09:29:10.988Z,3.47
2022-11-21T09:32:15.633Z,3.73
2022-11-21T09:35:20.485Z,4.00
2022-11-21T09:38:26.630Z,3.83
2022-11-21T09:41:53.923Z,4.30
2022-11-21T09:45:09.374Z,4.20
2022-11-21T09:48:17.209Z,3.80
2022-11-21T09:51:23.049Z,4.57
2022-11-21T09:54:33.270Z,4.27
2022-11-21T09:57:39.655Z,3.40
2022-11-21T10:00:44.331Z,3.23
2022-11-21T10:03:52.481Z,3.80
2022-11-21T10:07:04.106Z,3.57
2022-11-21T10:10:26.417Z,3.77
2022-11-21T10:13:57.870Z,3.47
2022-11-21T10:17:14.608Z,3.20
2022-11-21T10:20:33.534Z,3.60
2022-11-21T10:24:02.086Z,3.27
2022-11-21T10:27:13.492Z,2.80
2022-11-21T10:30:21.996Z,3.07
2022-11-21T10:33:32.741Z,3.30
2022-11-21T10:36:39.431Z,3.10
2022-11-21T10:39:46.855Z,2.70
2022-11-21T10:42:56.287Z,2.63
2022-11-21T10:46:01.308Z,2.43
2022-11-21T10:49:08.187Z,2.70
2022-11-21T10:52:20.219Z,2.70
2022-11-21T10:55:24.876Z,2.83
2022-11-21T10:58:42.709Z,2.70
2022-11-21T11:01:56.714Z,3.00
2022-11-21T11:05:29.361Z,2.90
2022-11-21T11:08:52.632Z,2.70
2022-11-21T11:12:24.897Z,2.93
2022-11-21T11:15:29.680Z,2.60
2022-11-21T11:18:38.697Z,2.40
2022-11-21T11:21:45.691Z,2.87
2022-11-21T11:24:59.074Z,2.40
2022-11-21T11:28:09.225Z,2.27
2022-11-21T11:31:14.465Z,2.20
2022-11-21T11:34:20.941Z,2.97
2022-11-21T11:37:40.444Z,2.27
2022-11-21T11:40:46.639Z,2.23
2022-11-21T11:44:18.802Z,2.00
2022-11-21T11:47:32.434Z,2.60
2022-11-21T11:50:42.329Z,2.40
2022-11-21T11:53:51.172Z,1.90
2022-11-21T11:56:55.840Z,1.80
2022-11-21T12:00:10.331Z,2.13
2022-11-21T12:03:21.168Z,2.20
2022-11-21T12:07:04.102Z,2.40
2022-11-21T12:10:00.701Z,2.20
2022-11-21T12:13:11.295Z,2.10
2022-11-21T12:16:16.189Z,2.70
2022-11-21T12:19:21.101Z,2.70
2022-11-21T12:22:27.189Z,2.90
2022-11-21T12:25:37.812Z,2.60
2022-11-21T12:28:53.838Z,2.50
2022-11-21T12:32:16.039Z,2.73
2022-11-21T12:35:39.858Z,2.70
2022-11-21T12:39:11.867Z,2.57
2022-11-21T12:42:39.215Z,2.20
2022-11-21T12:45:50.449Z,2.40
2022-11-21T12:49:13.573Z,2.43
2022-11-21T12:52:42.086Z,2.47
2022-11-21T12:55:48.552Z,2.40
2022-11-21T12:58:55.069Z,2.47
2022-11-21T13:02:06.772Z,2.40
2022-11-21T13:05:25.664Z,2.20
2022-11-21T13:08:32.801Z,2.37
2022-11-21T13:12:07.201Z,2.60
2022-11-21T13:15:23.304Z,2.40
2022-11-21T13:18:31.504Z,2.00
2022-11-21T13:21:43.643Z,2.40
2022-11-21T13:24:59.918Z,2.20
2022-11-21T13:28:36.482Z,2.40
2022-11-21T13:31:41.841Z,2.10
2022-11-21T13:34:46.509Z,2.23
2022-11-21T13:38:02.958Z,2.17
2022-11-21T13:41:26.631Z,2.43
2022-11-21T13:44:41.369Z,2.30
2022-11-21T13:48:18.879Z,2.63
2022-11-21T13:51:46.940Z,2.30
2022-11-21T13:55:26.474Z,2.20
2022-11-21T13:58:45.073Z,2.03
2022-11-21T14:02:19.297Z,2.33
2022-11-21T14:05:48.764Z,2.40
2022-11-21T14:09:25.894Z,2.30
2022-11-21T14:12:35.375Z,2.37
2022-11-21T14:15:49.273Z,2.00
2022-11-21T14:18:55.912Z,2.53
2022-11-21T14:22:01.889Z,2.30
2022-11-21T14:25:11.501Z,2.43
2022-11-21T14:28:22.118Z,2.80
2022-11-21T14:31:26.700Z,2.73
2022-11-21T14:34:33.984Z,2.93
2022-11-21T14:37:42.316Z,3.40
2022-11-21T14:40:47.142Z,3.60
2022-11-21T14:43:52.372Z,3.70
2022-11-21T14:47:09.784Z,4.20
2022-11-21T14:50:28.418Z,4.27
2022-11-21T14:53:34.060Z,4.40
2022-11-21T14:56:39.026Z,4.30
2022-11-21T14:59:44.782Z,4.10
2022-11-21T15:02:51.791Z,3.57
2022-11-21T15:06:06.371Z,3.30
2022-11-21T15:10:25.948Z,3.77
2022-11-21T15:12:52.141Z,3.77
2022-11-21T15:15:57.404Z,3.53
2022-11-21T15:19:02.421Z,3.77
2022-11-21T15:22:08.579Z,3.57
2022-11-21T15:25:19.935Z,3.60
2022-11-21T15:28:24.912Z,3.50
2022-11-21T15:31:29.813Z,3.57
2022-11-21T15:34:36.105Z,3.43
2022-11-21T15:37:50.067Z,3.10
2022-11-21T15:41:29.500Z,3.33
2022-11-21T15:44:34.569Z,3.57
2022-11-21T15:47:39.170Z,4.27
2022-11-21T15:50:43.807Z,4.40
2022-11-21T15:53:49.820Z,4.10
2022-11-21T15:56:54.870Z,4.57
2022-11-21T15:59:59.586Z,4.90
2022-11-21T16:03:04.494Z,4.50
2022-11-21T16:06:12.299Z,5.00
2022-11-21T16:09:18.509Z,5.60
2022-11-21T16:12:23.177Z,5.43
2022-11-21T16:15:27.827Z,6.17
2022-11-21T16:18:32.902Z,5.80
2022-11-21T16:21:38.305Z,6.27
2022-11-21T16:24:44.488Z,5.70
2022-11-21T16:27:49.180Z,5.30
2022-11-21T16:30:53.882Z,5.33
2022-11-21T16:33:59.379Z,4.10
2022-11-21T16:37:07.263Z,4.27
2022-11-21T16:40:15.849Z,3.83
2022-11-21T16:43:20.409Z,3.93
2022-11-21T16:46:26.280Z,4.20
2022-11-21T16:49:31.276Z,3.80
2022-11-21T16:52:36.687Z,4.33
2022-11-21T16:55:42.759Z,4.00
2022-11-21T16:58:47.671Z,3.90
2022-11-21T17:01:52.620Z,4.07
2022-11-21T17:04:57.281Z,4.47
2022-11-21T17:08:02.036Z,4.40
2022-11-21T17:11:15.445Z,4.70
2022-11-21T17:14:20.111Z,5.37
2022-11-21T17:17:24.763Z,4.47
2022-11-21T17:20:29.703Z,4.70
2022-11-21T17:23:35.011Z,5.27
2022-11-21T17:26:41.151Z,4.87
2022-11-21T17:29:45.758Z,4.77
2022-11-21T17:32:50.465Z,4.87
2022-11-21T17:35:55.722Z,4.97
2022-11-21T17:39:00.592Z,4.90
2022-11-21T17:42:06.849Z,5.27
2022-11-21T17:45:12.324Z,5.27
2022-11-21T17:48:17.384Z,4.97
2022-11-21T17:51:23.869Z,5.73
2022-11-21T17:54:28.748Z,6.10
2022-11-21T17:57:34.874Z,7.50
2022-11-21T18:00:39.909Z,10.83
2022-11-21T18:03:44.549Z,6.20
2022-11-21T18:06:49.345Z,4.63
2022-11-21T18:09:54.197Z,4.13
2022-11-21T18:13:00.324Z,4.60
2022-11-21T18:16:08.191Z,4.20
2022-11-21T18:19:14.907Z,3.60
2022-11-21T18:22:22.564Z,3.13
2022-11-21T18:25:29.824Z,3.37
2022-11-21T18:28:36.272Z,3.33
2022-11-21T18:31:42.784Z,3.27
2022-11-21T18:34:47.549Z,3.37
2022-11-21T18:37:52.351Z,3.50
2022-11-21T18:40:56.969Z,3.43
2022-11-21T18:44:04.587Z,3.37
2022-11-21T18:47:19.973Z,2.77
2022-11-21T18:50:25.737Z,3.17
2022-11-21T18:53:30.585Z,3.57
2022-11-21T18:56:36.286Z,3.07
2022-11-21T18:59:42.288Z,4.17
2022-11-21T19:02:48.008Z,4.00
2022-11-21T19:05:52.728Z,4.50
2022-11-21T19:08:59.168Z,5.20
2022-11-21T19:12:04.089Z,4.97
2022-11-21T19:15:11.776Z,5.00
2022-11-21T19:18:16.365Z,5.13
2022-11-21T19:21:21.102Z,5.77
2022-11-21T19:24:25.781Z,6.07
2022-11-21T19:27:30.519Z,5.50
2022-11-21T19:30:37.476Z,7.60
2022-11-21T19:33:42.372Z,7.43
2022-11-21T19:36:47.254Z,8.10
2022-11-21T19:39:52.134Z,6.87
2022-11-21T19:42:56.727Z,6.57
2022-11-21T19:46:05.486Z,6.30
2022-11-21T19:49:12.447Z,5.67
2022-11-21T19:52:17.182Z,6.00
2022-11-21T19:55:21.994Z,5.70
2022-11-21T19:58:27.526Z,4.73
2022-11-21T20:01:35.151Z,5.20
2022-11-21T20:04:40.237Z,5.23
2022-11-21T20:07:45.080Z,5.13
2022-11-21T20:10:49.732Z,4.93
2022-11-21T20:13:55.221Z,4.77
2022-11-21T20:17:01.494Z,5.13
2022-11-21T20:20:07.570Z,4.93
2022-11-21T20:23:13.277Z,4.80
2022-11-21T20:26:19.241Z,4.60
2022-11-21T20:29:24.692Z,4.90
2022-11-21T20:32:32.384Z,4.93
2022-11-21T20:35:39.193Z,4.80
2022-11-21T20:38:44.007Z,4.40
2022-11-21T20:41:49.228Z,4.97
2022-11-21T20:48:20.516Z,4.77
2022-11-21T20:54:50.691Z,3.97
2022-11-21T20:57:55.429Z,4.37
2022-11-21T21:01:00.141Z,4.07
2022-11-21T21:04:06.331Z,3.50
2022-11-21T21:07:11.868Z,3.90
2022-11-21T21:10:17.769Z,3.90
2022-11-21T21:13:22.386Z,4.27
2022-11-21T21:16:30.544Z,3.80
2022-11-21T21:19:36.817Z,3.43
2022-11-21T21:22:41.722Z,3.90
2022-11-21T21:25:46.450Z,4.10
2022-11-21T21:28:51.693Z,4.20
2022-11-21T21:31:56.605Z,4.17
2022-11-21T21:35:02.725Z,3.97
2022-11-21T21:38:09.077Z,3.87
2022-11-21T21:41:16.052Z,4.13
2022-11-21T21:44:21.164Z,4.10
2022-11-21T21:47:25.813Z,4.00
2022-11-21T21:50:31.820Z,4.23
2022-11-21T21:53:38.359Z,4.50
2022-11-21T21:56:43.114Z,4.93
2022-11-21T21:59:47.702Z,4.67
2022-11-21T22:02:52.282Z,4.57
2022-11-21T22:06:02.420Z,4.47
2022-11-21T22:09:07.537Z,5.00
2022-11-21T22:12:13.440Z,5.07
2022-11-21T22:15:18.032Z,5.17
2022-11-21T22:18:22.803Z,5.07
2022-11-21T22:21:32.504Z,5.30
2022-11-21T22:24:39.342Z,5.40
2022-11-21T22:27:44.120Z,6.30
2022-11-21T22:30:55.824Z,5.93
2022-11-21T22:34:00.980Z,5.53
2022-11-21T22:37:07.116Z,5.97
2022-11-21T22:40:13.998Z,6.27
2022-11-21T22:43:20.041Z,5.90
2022-11-21T22:46:27.085Z,5.60
2022-11-21T22:49:31.777Z,5.67
2022-11-21T22:52:38.209Z,5.67
2022-11-21T22:55:43.070Z,5.93
2022-11-21T22:58:48.540Z,5.23
2022-11-21T23:01:53.280Z,5.50
2022-11-21T23:04:57.919Z,5.27
2022-11-21T23:08:03.994Z,5.93
2022-11-21T23:11:11.298Z,5.20
2022-11-21T23:14:15.947Z,5.70
2022-11-21T23:17:21.537Z,5.60
2022-11-21T23:20:26.398Z,5.53
2022-11-21T23:23:32.809Z,5.17
2022-11-21T23:26:37.999Z,5.53
2022-11-21T23:29:42.651Z,5.57
2022-11-21T23:32:47.484Z,5.83
2022-11-21T23:35:52.468Z,5.93
2022-11-21T23:38:58.814Z,5.80
2022-11-21T23:42:03.498Z,5.70
2022-11-21T23:45:10.058Z,6.00
2022-11-21T23:48:15.135Z,5.27
2022-11-21T23:51:19.951Z,4.97
2022-11-21T23:54:25.974Z,5.47
2022-11-21T23:57:30.593Z,5.27
